Time;durP1;ratioP1;P1;durP2;ratioP2;P2;SDS_P1;SDS_P2;PMS_P1;PMS_P2;Temp;Humidity;BMP_temperature;BMP_pressure;BME280_temperature;BME280_humidity;BME280_pressure;Samples;Min_cycle;Max_cycle;Signal;HPM_P1;HPM_P2
2022/01/14 00:02:00;;;;;;;48.55;24.98;;;;;;;4.61;100.00;102258.41;5018978;28;20049;-61
2022/01/14 00:04:27;;;;;;;53.35;25.40;;;;;;;4.60;100.00;102261.91;5010724;28;20049;-58
2022/01/14 00:06:54;;;;;;;44.58;23.73;;;;;;;4.61;100.00;102256.66;5003475;28;20509;-58
2022/01/14 00:09:22;;;;;;;47.88;25.33;;;;;;;4.63;100.00;102256.63;5015508;28;20046;-59
2022/01/14 00:11:55;;;;;;;53.97;25.80;;;;;;;4.59;100.00;102258.41;5020439;28;20174;-58
2022/01/14 00:14:57;;;;;;;50.72;25.27;;;;;;;4.66;100.00;102267.06;5019267;28;20096;-58
2022/01/14 00:17:14;;;;;;;46.50;24.30;;;;;;;4.65;100.00;102257.50;5022197;28;20517;-60
2022/01/14 00:19:42;;;;;;;54.45;24.77;;;;;;;4.62;100.00;102270.56;5014192;28;20172;-60
2022/01/14 00:22:14;;;;;;;49.58;25.52;;;;;;;4.64;100.00;102264.47;5012385;28;20060;-58
2022/01/14 00:33:07;;;;;;;53.42;25.17;;;;;;;4.66;100.00;102259.22;5021990;28;20129;-61
2022/01/14 00:35:36;;;;;;;50.50;26.52;;;;;;;4.64;100.00;102260.97;5015547;28;20129;-61
2022/01/14 00:38:03;;;;;;;45.90;23.80;;;;;;;4.68;100.00;102275.72;5016386;28;20062;-62
2022/01/14 00:40:33;;;;;;;44.28;24.80;;;;;;;4.70;100.00;102272.22;5016817;28;20064;-59
2022/01/14 00:43:00;;;;;;;47.35;24.13;;;;;;;4.72;100.00;102273.06;5018319;28;20041;-60
2022/01/14 00:45:27;;;;;;;48.08;23.50;;;;;;;4.76;100.00;102266.09;5011922;28;20053;-59
2022/01/14 00:47:55;;;;;;;39.38;23.85;;;;;;;4.72;100.00;102270.47;5021261;28;20405;-57
2022/01/14 00:50:22;;;;;;;45.38;25.25;;;;;;;4.75;100.00;102266.97;5008142;28;23333;-60
2022/01/14 00:52:50;;;;;;;48.80;26.48;;;;;;;4.74;100.00;102258.28;5004509;28;20046;-58
2022/01/14 00:55:18;;;;;;;49.08;23.77;;;;;;;4.75;100.00;102260.00;5010796;28;20046;-60
2022/01/14 01:00:28;;;;;;;45.17;23.65;;;;;;;4.77;100.00;102257.38;5011319;28;20057;-60
2022/01/14 01:02:55;;;;;;;53.75;25.52;;;;;;;4.76;100.00;102260.88;5017764;28;20045;-58
2022/01/14 01:05:24;;;;;;;48.95;23.77;;;;;;;4.81;100.00;102261.69;5007732;28;20057;-60
2022/01/14 01:10:27;;;;;;;55.50;26.13;;;;;;;4.77;100.00;102249.56;5011223;28;20053;-58
2022/01/14 01:13:18;;;;;;;44.17;25.60;;;;;;;4.75;100.00;102264.38;5014782;28;20071;-57
2022/01/14 01:15:45;;;;;;;51.15;23.52;;;;;;;4.80;100.00;102258.22;5014870;28;20053;-60
2022/01/14 01:18:13;;;;;;;58.08;26.85;;;;;;;4.78;100.00;102246.94;5016762;28;20052;-62
2022/01/14 01:20:40;;;;;;;49.92;25.40;;;;;;;4.79;100.00;102259.09;5012819;28;20128;-60
2022/01/14 01:23:07;;;;;;;48.58;25.08;;;;;;;4.80;100.00;102257.38;5015497;28;20045;-60
2022/01/14 01:25:40;;;;;;;53.05;26.70;;;;;;;4.77;100.00;102244.34;5013918;28;20068;-58
2022/01/14 01:28:08;;;;;;;54.38;25.80;;;;;;;4.80;100.00;102252.13;5013221;28;20592;-60
2022/01/14 01:33:06;;;;;;;43.33;24.25;;;;;;;4.81;100.00;102241.69;5013075;28;20060;-59
2022/01/14 01:35:34;;;;;;;54.95;24.65;;;;;;;4.84;100.00;102246.03;4996621;28;20045;-61
2022/01/14 01:38:01;;;;;;;49.35;23.35;;;;;;;4.85;100.00;102249.50;5019196;28;20049;-60
2022/01/14 01:40:28;;;;;;;51.08;23.90;;;;;;;4.87;100.00;102253.84;5008604;28;20127;-59
2022/01/14 01:42:57;;;;;;;50.83;24.52;;;;;;;4.87;100.00;102253.84;5013634;28;20046;-60
2022/01/14 01:45:26;;;;;;;49.70;23.58;;;;;;;4.84;100.00;102256.47;5014334;28;20059;-57
2022/01/14 01:47:54;;;;;;;53.80;24.55;;;;;;;4.86;100.00;102246.00;5011199;28;20045;-60
2022/01/14 01:50:24;;;;;;;49.83;23.95;;;;;;;4.86;100.00;102241.63;5015918;28;20057;-60
2022/01/14 01:52:52;;;;;;;57.75;24.65;;;;;;;4.84;100.00;102243.41;5014656;28;20042;-59
2022/01/14 01:55:21;;;;;;;50.55;25.27;;;;;;;4.87;100.00;102246.00;5015339;28;20053;-59
2022/01/14 01:57:50;;;;;;;52.35;24.33;;;;;;;4.85;100.00;102237.31;5013727;28;20897;-57
2022/01/14 02:00:19;;;;;;;58.35;24.83;;;;;;;4.87;100.00;102237.31;5018277;28;20045;-56
2022/01/14 02:02:49;;;;;;;49.20;25.63;;;;;;;4.88;100.00;102232.06;5015394;28;20310;-60
2022/01/14 02:05:16;;;;;;;49.08;25.42;;;;;;;4.84;100.00;102240.81;5013364;28;20050;-60
2022/01/14 02:07:44;;;;;;;48.97;24.42;;;;;;;4.86;100.00;102244.25;4994351;28;20153;-59
2022/01/14 02:10:12;;;;;;;52.72;25.08;;;;;;;4.87;100.00;102232.97;5012806;28;20068;-61
2022/01/14 02:12:49;;;;;;;56.70;24.63;;;;;;;4.86;100.00;102241.63;5013698;28;20061;-58
2022/01/14 02:15:45;;;;;;;53.45;22.80;;;;;;;4.86;100.00;102232.94;5013440;28;20121;-60
2022/01/14 02:18:30;;;;;;;56.15;25.38;;;;;;;4.88;100.00;102231.22;5016548;28;20061;-60
2022/01/14 02:23:49;;;;;;;50.65;23.52;;;;;;;4.91;100.00;102236.38;5029461;28;20063;-60
2022/01/14 02:26:18;;;;;;;48.80;24.33;;;;;;;4.89;100.00;102231.19;5038092;28;20057;-62
2022/01/14 02:28:51;;;;;;;41.78;23.13;;;;;;;4.86;100.00;102220.75;5036342;28;20283;-61
2022/01/14 02:31:18;;;;;;;51.47;24.73;;;;;;;4.82;100.00;102227.78;5029015;28;20561;-59
2022/01/14 02:33:46;;;;;;;52.22;24.95;;;;;;;4.83;100.00;102223.44;5011508;28;20037;-62
2022/01/14 02:36:13;;;;;;;56.83;26.27;;;;;;;4.83;100.00;102224.28;5011554;28;20465;-60
2022/01/14 02:38:40;;;;;;;49.83;25.52;;;;;;;4.83;100.00;102211.25;5019354;28;20067;-62
2022/01/14 02:41:07;;;;;;;52.80;26.80;;;;;;;4.74;100.00;102211.31;5006716;28;20053;-58
2022/01/14 02:43:35;;;;;;;60.15;26.40;;;;;;;4.78;100.00;102210.44;5005832;28;20512;-61
2022/01/14 02:46:05;;;;;;;56.55;26.88;;;;;;;4.77;100.00;102210.41;5016796;28;20045;-60
2022/01/14 02:48:32;;;;;;;49.95;27.15;;;;;;;4.71;100.00;102205.28;5016245;28;20050;-59
2022/01/14 02:51:10;;;;;;;60.72;28.92;;;;;;;4.68;100.00;102202.69;5016171;28;20050;-61
2022/01/14 02:56:09;;;;;;;61.25;28.15;;;;;;;4.64;100.00;102198.38;5015181;28;20049;-61
2022/01/14 02:58:38;;;;;;;61.75;28.67;;;;;;;4.66;100.00;102194.00;5011864;28;20491;-59
2022/01/14 03:01:12;;;;;;;67.00;29.38;;;;;;;4.59;100.00;102190.59;5014978;28;20410;-61
2022/01/14 03:03:40;;;;;;;60.67;29.38;;;;;;;4.62;100.00;102202.75;5022419;28;20152;-60
2022/01/14 03:06:07;;;;;;;55.85;29.15;;;;;;;4.57;100.00;102195.81;5011136;28;20053;-62
2022/01/14 03:08:35;;;;;;;60.30;27.50;;;;;;;4.61;100.00;102196.66;5015575;28;20077;-61
2022/01/14 03:11:09;;;;;;;65.00;28.67;;;;;;;4.53;100.00;102188.91;5015754;28;20131;-61
2022/01/14 03:13:36;;;;;;;64.15;30.95;;;;;;;4.52;100.00;102186.31;5020147;28;20060;-61
2022/01/14 03:16:04;;;;;;;61.95;28.85;;;;;;;4.60;100.00;102178.44;5015911;28;20042;-62
2022/01/14 03:18:39;;;;;;;64.03;29.52;;;;;;;4.51;100.00;102175.03;5015394;28;20061;-62
2022/01/14 03:21:10;;;;;;;61.00;28.93;;;;;;;4.49;100.00;102168.06;5016260;28;20064;-63
2022/01/14 03:23:45;;;;;;;67.97;31.92;;;;;;;4.48;100.00;102162.00;5016566;28;20045;-60
2022/01/14 03:26:14;;;;;;;65.68;32.95;;;;;;;4.42;100.00;102174.25;5016825;28;20061;-59
2022/01/14 03:28:42;;;;;;;64.82;32.88;;;;;;;4.37;100.00;102168.19;5019468;28;20049;-59
2022/01/14 03:31:10;;;;;;;68.80;32.70;;;;;;;4.37;100.00;102161.25;5016216;28;20065;-62
2022/01/14 03:33:37;;;;;;;60.17;30.83;;;;;;;4.38;100.00;102152.53;5014772;28;20052;-62
2022/01/14 03:36:05;;;;;;;68.30;33.38;;;;;;;4.39;100.00;102149.06;5024651;28;20676;-59
2022/01/14 03:38:32;;;;;;;64.75;32.05;;;;;;;4.42;100.00;102156.00;5017668;28;20065;-61
2022/01/14 03:41:01;;;;;;;80.95;33.05;;;;;;;4.36;100.00;102154.28;5017431;28;20045;-60
2022/01/14 03:43:28;;;;;;;69.22;32.63;;;;;;;4.35;100.00;102157.78;5010465;28;20056;-60
2022/01/14 03:45:56;;;;;;;69.50;32.53;;;;;;;4.32;100.00;102153.47;5016742;28;20065;-62
2022/01/14 03:48:23;;;;;;;65.93;31.48;;;;;;;4.27;100.00;102147.41;5016273;28;20072;-60
2022/01/14 03:50:50;;;;;;;73.38;30.52;;;;;;;4.29;100.00;102147.41;4996284;28;20058;-62
2022/01/14 03:53:18;;;;;;;71.43;33.25;;;;;;;4.31;100.00;102133.47;5016398;28;20133;-60
2022/01/14 03:55:45;;;;;;;71.88;31.75;;;;;;;4.29;100.00;102127.41;5014229;28;20045;-60
2022/01/14 03:58:32;;;;;;;66.03;31.17;;;;;;;4.30;100.00;102133.50;5010540;28;20294;-61
2022/01/14 04:01:00;;;;;;;61.58;30.17;;;;;;;4.27;100.00;102126.53;5016020;28;20065;-62
2022/01/14 04:03:27;;;;;;;66.90;32.75;;;;;;;4.23;100.00;102124.88;5013360;28;20049;-65
2022/01/14 04:05:54;;;;;;;65.53;31.48;;;;;;;4.24;100.00;102120.53;5010658;28;20054;-61
2022/01/14 04:08:21;;;;;;;65.35;32.63;;;;;;;4.21;100.00;102113.56;5018455;28;20057;-60
2022/01/14 04:10:51;;;;;;;63.40;30.95;;;;;;;4.22;100.00;102109.22;5012842;28;20557;-61
2022/01/14 04:13:23;;;;;;;61.28;30.17;;;;;;;4.24;100.00;102112.69;5015862;28;20050;-60
2022/01/14 04:15:51;;;;;;;60.28;30.35;;;;;;;4.19;100.00;102104.91;5003523;28;20045;-59
2022/01/14 04:18:19;;;;;;;59.25;29.77;;;;;;;4.21;100.00;102110.09;5019661;28;21086;-60
2022/01/14 04:20:49;;;;;;;63.97;31.90;;;;;;;4.24;100.00;102120.53;5022122;28;20049;-61
2022/01/14 04:23:19;;;;;;;67.55;30.58;;;;;;;4.15;100.00;102110.16;4975160;28;20108;-61
2022/01/14 04:25:51;;;;;;;73.50;32.40;;;;;;;4.14;100.00;102124.91;5023202;28;20050;-62
2022/01/14 04:28:29;;;;;;;60.00;30.60;;;;;;;4.18;100.00;102113.59;5019190;28;20159;-61
2022/01/14 04:30:56;;;;;;;54.55;28.77;;;;;;;4.16;100.00;102102.34;5024632;28;20552;-61
2022/01/14 04:33:26;;;;;;;56.33;28.55;;;;;;;4.17;100.00;102109.25;5017676;28;20058;-61
2022/01/14 04:35:59;;;;;;;55.90;28.52;;;;;;;4.18;100.00;102110.97;5022927;28;20100;-59
2022/01/14 04:38:27;;;;;;;60.17;29.23;;;;;;;4.16;100.00;102104.06;5020100;28;20841;-61
2022/01/14 04:40:55;;;;;;;59.13;29.70;;;;;;;4.14;100.00;102104.06;5018052;28;20050;-63
2022/01/14 04:43:22;;;;;;;61.83;29.35;;;;;;;4.18;100.00;102097.94;5014111;28;20058;-63
2022/01/14 04:46:47;;;;;;;60.22;29.52;;;;;;;4.20;100.00;102098.81;5016575;28;20157;-63
2022/01/14 04:48:41;;;;;;;58.90;29.15;;;;;;;4.22;100.00;102089.22;4995898;28;20482;-62
2022/01/14 04:51:10;;;;;;;62.25;30.33;;;;;;;4.24;100.00;102090.09;5016153;28;20058;-63
2022/01/14 04:53:37;;;;;;;61.75;30.98;;;;;;;4.22;100.00;102077.94;5019939;28;20048;-61
2022/01/14 04:56:05;;;;;;;64.30;29.80;;;;;;;4.18;100.00;102066.69;5017547;28;20049;-62
2022/01/14 04:58:33;;;;;;;58.75;30.17;;;;;;;4.24;100.00;102071.84;4998261;28;20057;-62
2022/01/14 05:01:00;;;;;;;57.65;28.88;;;;;;;4.16;100.00;102065.84;5014652;28;20053;-63
2022/01/14 05:03:27;;;;;;;55.25;29.73;;;;;;;4.16;100.00;102065.84;5016702;28;20455;-63
2022/01/14 05:05:57;;;;;;;55.42;29.55;;;;;;;4.22;100.00;102063.16;5016809;28;20049;-63
2022/01/14 05:08:34;;;;;;;56.20;29.92;;;;;;;4.15;100.00;102071.06;5015583;28;20053;-58
2022/01/14 05:11:22;;;;;;;60.63;30.45;;;;;;;4.26;100.00;102069.22;5020050;28;20057;-61
2022/01/14 05:13:49;;;;;;;52.53;28.73;;;;;;;4.26;100.00;102074.44;5014555;28;20050;-62
2022/01/14 05:16:17;;;;;;;64.15;29.63;;;;;;;4.19;100.00;102075.38;5011846;28;20049;-62
2022/01/14 05:18:45;;;;;;;64.03;30.95;;;;;;;4.14;100.00;102071.94;5002961;28;20064;-63
2022/01/14 05:21:13;;;;;;;58.95;29.63;;;;;;;4.20;100.00;102061.47;5003758;28;20395;-64
2022/01/14 05:23:42;;;;;;;56.20;30.40;;;;;;;4.19;100.00;102057.16;5010446;28;20068;-63
2022/01/14 05:26:11;;;;;;;62.05;28.58;;;;;;;4.20;100.00;102067.53;5005926;28;20145;-61
2022/01/14 05:28:38;;;;;;;60.60;29.65;;;;;;;4.19;100.00;102068.44;5004082;28;20099;-61
2022/01/14 05:31:06;;;;;;;61.63;30.27;;;;;;;4.25;100.00;102062.28;5003106;28;20045;-63
2022/01/14 05:33:33;;;;;;;58.20;29.40;;;;;;;4.26;100.00;102061.41;5005419;28;20053;-60
2022/01/14 05:36:00;;;;;;;55.58;28.95;;;;;;;4.29;100.00;102064.84;5006739;28;20058;-61
2022/01/14 05:38:27;;;;;;;59.53;29.15;;;;;;;4.27;100.00;102068.34;5003315;28;21505;-62
2022/01/14 05:40:55;;;;;;;58.90;29.00;;;;;;;4.21;100.00;102066.66;5003141;28;20056;-63
2022/01/14 05:43:22;;;;;;;59.45;28.58;;;;;;;4.21;100.00;102066.66;5006241;28;20050;-63
2022/01/14 05:45:50;;;;;;;64.60;30.83;;;;;;;4.20;100.00;102062.34;4989181;28;20068;-61
2022/01/14 05:48:17;;;;;;;58.58;29.65;;;;;;;4.24;100.00;102068.38;5009807;28;20049;-61
2022/01/14 05:50:45;;;;;;;69.57;30.10;;;;;;;4.28;100.00;102060.53;5006678;28;20050;-60
2022/01/14 05:53:12;;;;;;;65.68;30.95;;;;;;;4.26;100.00;102048.38;4994926;28;20107;-61
2022/01/14 05:55:39;;;;;;;52.63;27.88;;;;;;;4.28;100.00;102039.66;5005027;28;20056;-62
2022/01/14 05:58:07;;;;;;;59.58;28.92;;;;;;;4.29;100.00;102030.09;5007118;28;20053;-63
2022/01/14 06:00:34;;;;;;;57.17;29.73;;;;;;;4.25;100.00;102057.06;5005549;28;20176;-62
2022/01/14 06:03:01;;;;;;;64.68;30.33;;;;;;;4.24;100.00;102040.56;5018075;28;20449;-61
2022/01/14 06:05:33;;;;;;;65.88;30.35;;;;;;;4.26;100.00;102045.75;5005369;28;20136;-62
2022/01/14 06:08:00;;;;;;;65.63;29.98;;;;;;;4.20;100.00;102051.03;5014185;28;20046;-63
2022/01/14 06:10:28;;;;;;;64.93;31.75;;;;;;;4.23;100.00;102044.06;5011621;28;20061;-62
2022/01/14 06:12:55;;;;;;;65.25;31.02;;;;;;;4.23;100.00;102031.03;5017281;28;20061;-61
2022/01/14 06:15:22;;;;;;;67.45;29.60;;;;;;;4.24;100.00;102027.53;5012775;28;20080;-62
2022/01/14 06:17:49;;;;;;;78.03;34.00;;;;;;;4.24;100.00;102042.31;5015154;28;20067;-61
2022/01/14 06:20:16;;;;;;;73.82;32.28;;;;;;;4.18;100.00;102039.75;5011492;28;20073;-60
2022/01/14 06:22:44;;;;;;;72.45;33.40;;;;;;;4.18;100.00;102050.19;5010540;28;20091;-62
2022/01/14 06:25:11;;;;;;;77.63;34.33;;;;;;;4.10;100.00;102046.78;5008824;28;20501;-61
2022/01/14 06:27:38;;;;;;;71.93;33.95;;;;;;;4.07;100.00;102045.94;5010650;28;20072;-61
2022/01/14 06:30:06;;;;;;;85.68;35.83;;;;;;;4.03;100.00;102064.22;5012468;28;20053;-60
2022/01/14 06:32:42;;;;;;;79.10;36.00;;;;;;;4.01;100.00;102064.25;4997786;28;20217;-61
2022/01/14 06:35:14;;;;;;;91.50;38.13;;;;;;;3.98;100.00;102074.69;5013282;28;20058;-63
2022/01/14 06:37:41;;;;;;;81.60;36.65;;;;;;;4.02;100.00;102075.53;5013217;28;20150;-62
2022/01/14 06:40:09;;;;;;;82.82;35.55;;;;;;;3.99;100.00;102065.13;5015362;28;20054;-62
2022/01/14 06:42:42;;;;;;;87.25;36.55;;;;;;;4.00;100.00;102078.13;5014572;28;20080;-60
2022/01/14 06:45:10;;;;;;;101.22;41.30;;;;;;;3.96;100.00;102065.13;5011027;28;20049;-61
2022/01/14 06:47:37;;;;;;;93.22;37.72;;;;;;;3.98;100.00;102090.31;5013867;28;20068;-62
2022/01/14 06:50:04;;;;;;;92.18;38.08;;;;;;;3.98;100.00;102090.31;5009344;28;20053;-61
2022/01/14 06:52:32;;;;;;;85.80;35.97;;;;;;;3.96;100.00;102083.38;5013754;28;20045;-62
2022/01/14 06:54:59;;;;;;;89.00;37.30;;;;;;;3.99;100.00;102091.19;5009606;28;20417;-60
2022/01/14 06:57:26;;;;;;;86.05;37.75;;;;;;;3.98;100.00;102100.75;5016244;28;20054;-61
2022/01/14 06:59:53;;;;;;;85.05;35.58;;;;;;;4.01;100.00;102116.38;5010272;28;20587;-62
2022/01/14 07:02:20;;;;;;;84.22;34.53;;;;;;;4.12;100.00;102098.03;5014635;28;20057;-61
2022/01/14 07:04:47;;;;;;;85.13;35.97;;;;;;;4.13;100.00;102094.53;5008966;28;20053;-61
2022/01/14 07:07:15;;;;;;;85.72;34.78;;;;;;;4.16;100.00;102093.66;5013882;28;20132;-61
2022/01/14 07:09:57;;;;;;;70.03;31.88;;;;;;;4.13;100.00;102084.09;5010522;28;20128;-62
2022/01/14 07:12:25;;;;;;;80.45;31.63;;;;;;;4.14;100.00;102071.94;5012677;28;20514;-59
2022/01/14 07:14:54;;;;;;;73.65;32.72;;;;;;;4.19;100.00;102070.19;5010314;28;20123;-61
2022/01/14 07:17:21;;;;;;;62.22;31.20;;;;;;;4.20;100.00;102056.25;5018498;28;20136;-61
2022/01/14 07:19:51;;;;;;;69.20;32.53;;;;;;;4.25;100.00;102072.72;5002447;28;20061;-63
2022/01/14 07:22:18;;;;;;;75.22;32.95;;;;;;;4.21;100.00;102073.63;5010441;28;20786;-62
2022/01/14 07:24:46;;;;;;;64.72;30.17;;;;;;;4.25;100.00;102064.88;5009746;28;20526;-62
2022/01/14 07:27:14;;;;;;;65.20;29.77;;;;;;;4.24;100.00;102056.22;5025097;28;20055;-61
2022/01/14 07:29:41;;;;;;;58.80;27.88;;;;;;;4.20;100.00;102054.50;5019122;28;20116;-62
2022/01/14 07:32:08;;;;;;;69.07;30.80;;;;;;;4.25;100.00;102072.72;5029169;28;20111;-61
2022/01/14 07:34:35;;;;;;;61.60;27.95;;;;;;;4.26;100.00;102074.44;5025651;28;20059;-59
2022/01/14 07:37:03;;;;;;;64.43;27.77;;;;;;;4.29;100.00;102074.41;5019463;28;20059;-62
2022/01/14 07:39:31;;;;;;;62.75;28.98;;;;;;;4.35;100.00;102074.34;5014293;28;20977;-61
2022/01/14 07:41:59;;;;;;;61.88;28.52;;;;;;;4.29;100.00;102066.59;5015823;28;20116;-61
2022/01/14 07:44:26;;;;;;;62.20;28.60;;;;;;;4.28;100.00;102078.78;5007677;28;20054;-62
2022/01/14 07:46:53;;;;;;;65.38;27.88;;;;;;;4.26;100.00;102053.56;5009545;28;20147;-64
2022/01/14 07:49:20;;;;;;;53.22;26.80;;;;;;;4.33;100.00;102060.47;5013859;28;20053;-61
2022/01/14 07:51:47;;;;;;;62.85;28.92;;;;;;;4.22;100.00;102057.09;5006776;28;20058;-62
2022/01/14 07:54:14;;;;;;;59.17;26.85;;;;;;;4.28;100.00;102062.25;5017901;28;20124;-61
2022/01/14 07:56:47;;;;;;;59.20;27.65;;;;;;;4.27;100.00;102063.97;5018593;28;20138;-61
2022/01/14 07:59:16;;;;;;;55.72;28.55;;;;;;;4.25;100.00;102047.50;5022591;28;20056;-61
2022/01/14 08:01:45;;;;;;;53.63;26.02;;;;;;;4.25;100.00;102051.84;5029330;28;20053;-61
2022/01/14 08:04:13;;;;;;;58.28;27.15;;;;;;;4.33;100.00;102060.47;5024691;28;20060;-64
2022/01/14 08:06:46;;;;;;;51.30;26.25;;;;;;;4.28;100.00;102047.47;5033051;28;20104;-63
2022/01/14 08:09:14;;;;;;;56.30;26.38;;;;;;;4.26;100.00;102054.44;5022326;28;20136;-60
2022/01/14 08:11:41;;;;;;;57.50;24.67;;;;;;;4.32;100.00;102056.09;5014215;28;20531;-60
2022/01/14 08:14:09;;;;;;;53.85;26.67;;;;;;;4.28;100.00;102060.53;5009014;28;20152;-61
2022/01/14 08:16:36;;;;;;;58.10;26.38;;;;;;;4.31;100.00;102052.66;5022640;28;20049;-61
2022/01/14 08:19:03;;;;;;;53.08;25.65;;;;;;;4.27;100.00;102048.34;5023490;28;20045;-62
2022/01/14 08:21:31;;;;;;;52.28;25.17;;;;;;;4.24;100.00;102039.72;5030818;28;20399;-61
2022/01/14 08:23:58;;;;;;;58.75;26.10;;;;;;;4.24;100.00;102042.31;5029949;28;20053;-62
2022/01/14 08:26:25;;;;;;;56.05;25.75;;;;;;;4.26;100.00;102054.44;5029249;28;20045;-61
2022/01/14 08:28:52;;;;;;;54.28;26.02;;;;;;;4.25;100.00;102049.25;5027195;28;20128;-62
2022/01/14 08:31:22;;;;;;;50.17;25.35;;;;;;;4.29;100.00;102041.38;5031001;28;20402;-61
2022/01/14 08:33:49;;;;;;;61.13;25.88;;;;;;;4.26;100.00;102045.75;5025598;28;20049;-62
2022/01/14 08:36:16;;;;;;;57.63;24.17;;;;;;;4.29;100.00;102064.84;5028811;28;20069;-61
2022/01/14 08:38:43;;;;;;;53.92;25.73;;;;;;;4.34;100.00;102056.13;5027478;28;20176;-60
2022/01/14 08:41:10;;;;;;;53.33;26.45;;;;;;;4.31;100.00;102054.41;5027798;28;20046;-61
2022/01/14 08:43:38;;;;;;;59.72;25.48;;;;;;;4.31;100.00;102057.00;5028117;28;20061;-60
2022/01/14 08:46:05;;;;;;;58.33;25.90;;;;;;;4.31;100.00;102051.78;5026693;28;20447;-60
2022/01/14 08:48:34;;;;;;;60.47;25.77;;;;;;;4.31;100.00;102063.06;5025814;28;20398;-59
2022/01/14 08:51:02;;;;;;;54.10;25.35;;;;;;;4.28;100.00;102057.06;5030611;28;20053;-60
2022/01/14 08:53:32;;;;;;;53.47;24.45;;;;;;;4.34;100.00;102062.19;5025507;28;20602;-61
2022/01/14 08:56:00;;;;;;;47.60;25.00;;;;;;;4.35;100.00;102053.47;5006530;28;20064;-61
2022/01/14 08:58:27;;;;;;;58.35;27.63;;;;;;;4.35;100.00;102056.09;5022078;28;20049;-59
2022/01/14 09:00:54;;;;;;;61.75;26.92;;;;;;;4.42;100.00;102049.94;5024286;28;20053;-60
2022/01/14 09:03:22;;;;;;;57.97;25.58;;;;;;;4.37;100.00;102046.53;5001818;28;20092;-63
2022/01/14 09:05:49;;;;;;;56.15;27.33;;;;;;;4.32;100.00;102038.75;5021701;28;20516;-61
2022/01/14 09:08:16;;;;;;;64.07;27.17;;;;;;;4.37;100.00;102038.72;5022277;28;20145;-61
2022/01/14 09:10:44;;;;;;;57.00;26.30;;;;;;;4.34;100.00;102030.91;5021987;28;20485;-60
2022/01/14 09:13:11;;;;;;;54.95;27.27;;;;;;;4.44;100.00;102044.72;5023535;28;20053;-60
2022/01/14 09:15:39;;;;;;;63.00;25.60;;;;;;;4.46;100.00;102033.41;5025764;28;20511;-60
2022/01/14 09:18:06;;;;;;;63.85;27.30;;;;;;;4.42;100.00;102042.13;5008632;28;20049;-60
2022/01/14 09:20:33;;;;;;;53.17;25.13;;;;;;;4.35;100.00;102030.03;5023086;28;20058;-62
2022/01/14 09:23:00;;;;;;;52.50;24.05;;;;;;;4.39;100.00;102042.16;5024262;28;20046;-61
2022/01/14 09:25:27;;;;;;;48.15;24.02;;;;;;;4.44;100.00;102035.13;5001815;28;20049;-61
2022/01/14 09:27:55;;;;;;;54.33;25.88;;;;;;;4.42;100.00;102044.72;5029872;28;20144;-62
2022/01/14 09:30:23;;;;;;;56.42;26.50;;;;;;;4.44;100.00;102029.06;5021419;28;20136;-60
2022/01/14 09:32:51;;;;;;;51.38;24.42;;;;;;;4.51;100.00;102034.19;5029124;28;20057;-59
2022/01/14 09:35:18;;;;;;;57.42;24.58;;;;;;;4.52;100.00;102035.91;5026204;28;20054;-62
2022/01/14 09:37:46;;;;;;;51.90;24.17;;;;;;;4.52;100.00;102035.91;5033464;28;20080;-61
2022/01/14 09:40:16;;;;;;;53.50;22.90;;;;;;;4.58;100.00;102033.22;5024899;28;20049;-60
2022/01/14 09:42:47;;;;;;;55.55;23.95;;;;;;;4.59;100.00;102036.69;5024291;28;20049;-60
2022/01/14 09:45:15;;;;;;;53.55;22.85;;;;;;;4.67;100.00;102036.63;5025040;28;20050;-61
2022/01/14 09:47:49;;;;;;;49.28;23.00;;;;;;;4.68;100.00;102031.38;5030022;28;20058;-61
2022/01/14 09:50:18;;;;;;;44.17;21.23;;;;;;;4.72;100.00;102034.81;5024978;28;20091;-59
2022/01/14 09:52:47;;;;;;;55.00;21.58;;;;;;;4.74;100.00;102031.31;5034311;28;20114;-61
2022/01/14 09:55:14;;;;;;;51.60;20.85;;;;;;;4.71;100.00;102039.16;5027104;28;20662;-61
2022/01/14 09:57:42;;;;;;;46.25;21.20;;;;;;;4.74;100.00;102036.53;5030018;28;20081;-61
2022/01/14 10:00:09;;;;;;;49.17;21.65;;;;;;;4.71;100.00;102001.78;5027233;28;20486;-62
2022/01/14 10:02:40;;;;;;;39.22;20.73;;;;;;;4.74;100.00;102004.38;5032602;28;20132;-61
2022/01/14 10:05:11;;;;;;;52.15;19.80;;;;;;;4.83;100.00;102020.75;5027583;28;20413;-61
2022/01/14 10:07:38;;;;;;;46.72;19.13;;;;;;;4.89;100.00;102035.47;5008930;28;20133;-62
2022/01/14 10:10:25;;;;;;;44.38;18.92;;;;;;;4.83;100.00;102025.13;5020092;28;20523;-62
2022/01/14 10:12:52;;;;;;;39.15;18.17;;;;;;;4.94;100.00;102014.53;5025552;28;20056;-61
2022/01/14 10:15:19;;;;;;;37.63;17.77;;;;;;;4.91;100.00;102049.38;5023230;28;20079;-61
2022/01/14 10:17:47;;;;;;;40.00;19.02;;;;;;;4.83;100.00;102018.16;5032645;28;20466;-62
2022/01/14 10:20:17;;;;;;;40.83;18.20;;;;;;;4.90;100.00;102015.47;5027979;28;20060;-60
2022/01/14 10:22:49;;;;;;;40.13;18.73;;;;;;;4.88;100.00;102014.63;5030243;28;20173;-61
2022/01/14 10:25:18;;;;;;;42.38;19.13;;;;;;;4.95;100.00;102017.13;5027770;28;20049;-61
2022/01/14 10:27:50;;;;;;;40.70;17.50;;;;;;;4.96;100.00;102025.84;5028008;28;20137;-60
2022/01/14 10:30:31;;;;;;;36.53;15.75;;;;;;;4.95;100.00;102021.47;5006754;28;20046;-58
2022/01/14 10:33:07;;;;;;;36.85;17.83;;;;;;;4.98;100.00;102018.84;5017899;28;20049;-61
2022/01/14 10:35:36;;;;;;;;;;;;;;;5.02;100.00;102016.16;5023037;28;20073;-60
2022/01/14 10:38:05;;;;;;;35.45;16.98;;;;;;;5.04;100.00;102014.41;5027262;28;19927;-61
2022/01/14 10:40:38;;;;;;;34.92;16.48;;;;;;;5.11;100.00;102014.31;5021722;28;20049;-61
2022/01/14 10:43:10;;;;;;;33.50;14.98;;;;;;;5.16;100.00;102002.91;5024094;28;20593;-61
2022/01/14 10:45:52;;;;;;;37.63;15.30;;;;;;;5.13;100.00;101996.88;5024050;28;20567;-60
2022/01/14 10:48:32;;;;;;;29.55;13.20;;;;;;;5.14;100.00;102004.69;5026153;28;20168;-59
2022/01/14 10:51:12;;;;;;;29.13;13.55;;;;;;;5.22;100.00;101999.34;5022315;28;20481;-61
2022/01/14 10:53:48;;;;;;;31.58;12.77;;;;;;;5.24;100.00;101989.75;5023078;28;20075;-60
2022/01/14 10:56:22;;;;;;;30.15;13.52;;;;;;;5.33;100.00;101984.41;5023669;28;20132;-60
2022/01/14 10:58:51;;;;;;;31.00;13.38;;;;;;;5.38;100.00;102000.84;5007577;28;20049;-60
2022/01/14 11:01:21;;;;;;;25.10;11.43;;;;;;;5.45;100.00;101999.00;5023274;28;20056;-58
2022/01/14 11:04:02;;;;;;;24.67;12.27;;;;;;;5.40;100.00;102033.00;5026513;28;20052;-60
2022/01/14 11:06:38;;;;;;;32.22;13.02;;;;;;;5.50;100.00;102007.66;5024688;28;20081;-62
2022/01/14 11:09:11;;;;;;;29.23;12.02;;;;;;;5.51;100.00;102019.81;5025589;28;20060;-60
2022/01/14 11:11:40;;;;;;;23.30;12.13;;;;;;;5.47;100.00;102010.28;5022900;28;20089;-60
2022/01/14 11:14:08;;;;;;;24.75;10.80;;;;;;;5.47;100.00;102016.38;5023987;28;20054;-61
2022/01/14 11:16:36;;;;;;;24.20;11.20;;;;;;;5.44;100.00;101998.13;5023792;28;20142;-60
2022/01/14 11:19:07;;;;;;;27.58;11.13;;;;;;;5.41;100.00;102008.66;5024889;28;20572;-60
2022/01/14 11:24:23;;;;;;;36.60;13.75;;;;;;;5.53;100.00;102005.81;5022452;28;20522;-60
2022/01/14 11:26:53;;;;;;;25.63;12.35;;;;;;;5.49;100.00;102001.56;5024988;28;20754;-61
2022/01/14 11:29:21;;;;;;;26.35;13.13;;;;;;;5.50;100.00;101973.69;5006844;28;21038;-60
2022/01/14 11:31:59;;;;;;;23.42;12.75;;;;;;;5.55;100.00;101983.16;5007281;28;20061;-59
2022/01/14 11:34:29;;;;;;;26.98;12.02;;;;;;;5.58;100.00;101974.41;5009802;28;20081;-61
2022/01/14 11:37:00;;;;;;;24.40;11.55;;;;;;;5.62;100.00;101959.53;5024274;28;20081;-59
2022/01/14 11:39:31;;;;;;;29.05;11.32;;;;;;;5.55;100.00;101979.69;5027025;28;20139;-60
2022/01/14 11:41:59;;;;;;;22.70;10.73;;;;;;;5.59;100.00;101973.53;5005335;28;20133;-58
2022/01/14 11:44:45;;;;;;;31.02;10.70;;;;;;;5.66;100.00;101964.69;5024888;28;20081;-63